createdAt,value
2022-09-22T00:00:15.682Z,25.25
2022-09-22T00:02:44.718Z,31.23
2022-09-22T00:05:14.274Z,27.95
2022-09-22T00:07:43.139Z,26.58
2022-09-22T00:10:12.893Z,27.60
2022-09-22T00:12:42.503Z,31.50
2022-09-22T00:15:12.232Z,25.88
2022-09-22T00:17:41.738Z,23.02
2022-09-22T00:20:12.283Z,29.85
2022-09-22T00:22:44.403Z,23.88
2022-09-22T00:25:13.330Z,26.48
2022-09-22T00:27:42.168Z,29.15
2022-09-22T00:30:12.111Z,26.00
2022-09-22T00:32:41.678Z,27.83
2022-09-22T00:35:10.991Z,26.70
2022-09-22T00:37:39.873Z,23.00
2022-09-22T00:40:11.395Z,21.45
2022-09-22T00:42:40.764Z,22.70
2022-09-22T00:45:13.665Z,28.63
2022-09-22T00:47:46.146Z,23.38
2022-09-22T00:53:07.228Z,23.88
2022-09-22T00:55:56.783Z,25.70
2022-09-22T00:58:32.932Z,25.50
2022-09-22T01:01:09.238Z,29.42
2022-09-22T01:03:44.855Z,35.33
2022-09-22T01:06:24.838Z,33.42
2022-09-22T01:08:55.905Z,38.42
2022-09-22T01:11:31.737Z,31.67
2022-09-22T01:14:04.141Z,30.63
2022-09-22T01:16:51.370Z,30.33
2022-09-22T01:19:57.546Z,39.17
2022-09-22T01:23:01.302Z,30.85
2022-09-22T01:26:36.382Z,28.40
2022-09-22T01:29:07.230Z,31.38
2022-09-22T01:32:13.608Z,32.40
2022-09-22T01:34:51.758Z,32.85
2022-09-22T01:37:56.419Z,26.30
2022-09-22T01:40:36.161Z,24.38
2022-09-22T01:43:33.599Z,33.33
2022-09-22T01:46:10.278Z,25.17
2022-09-22T01:48:44.394Z,30.75
2022-09-22T01:51:27.106Z,27.40
2022-09-22T01:54:03.872Z,39.13
2022-09-22T01:56:38.689Z,55.38
2022-09-22T01:59:13.900Z,47.70
2022-09-22T02:01:51.099Z,32.70
2022-09-22T02:04:32.131Z,33.70
2022-09-22T02:07:06.549Z,49.35
2022-09-22T02:10:20.227Z,24.45
2022-09-22T02:13:23.860Z,24.92
2022-09-22T02:16:04.254Z,27.60
2022-09-22T02:19:11.897Z,36.22
2022-09-22T02:21:46.761Z,45.40
2022-09-22T02:24:41.089Z,29.65
2022-09-22T02:27:43.508Z,41.70
2022-09-22T02:30:14.400Z,35.60
2022-09-22T02:32:50.725Z,55.47
2022-09-22T02:35:21.850Z,47.30
2022-09-22T02:38:28.030Z,67.90
2022-09-22T02:41:16.972Z,109.07
2022-09-22T02:43:58.805Z,129.65
2022-09-22T02:46:51.020Z,129.43
2022-09-22T02:49:22.314Z,85.07
2022-09-22T02:51:54.548Z,79.75
2022-09-22T02:54:25.404Z,283.67
2022-09-22T02:56:56.301Z,91.00
2022-09-22T02:59:27.021Z,119.45
2022-09-22T03:01:57.595Z,96.03
2022-09-22T03:04:28.677Z,159.77
2022-09-22T03:06:59.469Z,225.05
2022-09-22T03:09:30.757Z,79.13
2022-09-22T03:12:00.671Z,78.70
2022-09-22T03:14:32.273Z,98.72
2022-09-22T03:17:02.963Z,67.55
2022-09-22T03:19:33.412Z,71.38
2022-09-22T03:22:03.857Z,84.60
2022-09-22T03:24:34.882Z,68.90
2022-09-22T03:27:04.893Z,85.20
2022-09-22T03:29:35.831Z,80.65
2022-09-22T03:32:05.789Z,62.30
2022-09-22T03:34:36.273Z,67.05
2022-09-22T03:37:06.495Z,74.65
2022-09-22T03:39:36.494Z,63.13
2022-09-22T03:42:07.226Z,57.53
2022-09-22T03:44:38.756Z,54.50
2022-09-22T03:47:09.013Z,55.13
2022-09-22T03:49:39.569Z,77.40
2022-09-22T03:52:09.717Z,56.13
2022-09-22T03:54:42.017Z,59.92
2022-09-22T03:59:42.112Z,54.78
2022-09-22T04:02:13.449Z,66.70
2022-09-22T04:04:44.564Z,51.13
2022-09-22T04:07:15.034Z,47.92
2022-09-22T04:09:45.968Z,52.90
2022-09-22T04:12:15.846Z,44.60
2022-09-22T04:14:45.973Z,55.95
2022-09-22T04:17:16.155Z,53.88
2022-09-22T04:19:46.857Z,54.75
2022-09-22T04:22:17.372Z,69.78
2022-09-22T04:24:47.968Z,62.45
2022-09-22T04:27:20.674Z,44.30
2022-09-22T04:29:53.455Z,46.67
2022-09-22T04:35:02.568Z,101.68
2022-09-22T04:37:32.978Z,194.18
2022-09-22T04:40:03.500Z,45.67
2022-09-22T04:42:38.440Z,86.63
2022-09-22T04:45:15.723Z,37.83
2022-09-22T04:47:50.344Z,28.80
2022-09-22T04:50:23.036Z,26.60
2022-09-22T04:52:58.151Z,36.95
2022-09-22T04:55:41.416Z,46.45
2022-09-22T04:58:12.345Z,31.70
2022-09-22T05:00:48.305Z,35.92
2022-09-22T05:03:22.063Z,36.30
2022-09-22T05:06:01.562Z,37.28
2022-09-22T05:08:31.957Z,17.80
2022-09-22T05:11:04.329Z,30.17
2022-09-22T05:13:34.316Z,17.88
2022-09-22T05:16:04.184Z,20.52
2022-09-22T05:18:38.378Z,23.17
2022-09-22T05:21:09.375Z,20.90
2022-09-22T05:23:41.559Z,15.68
2022-09-22T05:26:31.651Z,24.10
2022-09-22T05:29:06.222Z,18.60
2022-09-22T05:31:38.886Z,20.02
2022-09-22T05:34:11.474Z,15.27
2022-09-22T05:36:44.017Z,14.60
2022-09-22T05:39:14.558Z,20.13
2022-09-22T05:41:44.315Z,12.73
2022-09-22T05:44:17.264Z,12.43
2022-09-22T05:46:47.738Z,23.42
2022-09-22T05:49:20.065Z,24.70
2022-09-22T05:51:56.191Z,17.55
2022-09-22T05:54:30.901Z,18.80
2022-09-22T05:57:04.784Z,16.17
2022-09-22T05:59:36.360Z,13.82
2022-09-22T06:04:58.870Z,26.90
2022-09-22T06:07:28.692Z,18.27
2022-09-22T06:09:58.258Z,17.05
2022-09-22T06:12:27.484Z,22.98
2022-09-22T06:14:57.779Z,26.08
2022-09-22T06:17:32.135Z,19.70
2022-09-22T06:20:04.377Z,17.83
2022-09-22T06:22:37.323Z,12.05
2022-09-22T06:25:10.337Z,11.48
2022-09-22T06:27:52.365Z,13.38
2022-09-22T06:30:23.697Z,12.25
2022-09-22T06:32:58.074Z,7.30
2022-09-22T06:35:33.434Z,22.77
2022-09-22T06:38:04.432Z,8.95
2022-09-22T06:40:37.413Z,6.97
2022-09-22T06:43:13.260Z,8.98
2022-09-22T06:45:49.234Z,9.77
2022-09-22T06:48:21.744Z,11.43
2022-09-22T06:50:55.856Z,18.50
2022-09-22T06:53:27.841Z,13.50
2022-09-22T06:56:22.053Z,19.92
2022-09-22T07:01:42.337Z,7.93
2022-09-22T07:04:13.793Z,12.00
2022-09-22T07:06:44.333Z,17.20
2022-09-22T07:09:14.001Z,16.42
2022-09-22T07:11:47.738Z,12.20
2022-09-22T07:14:17.380Z,16.45
2022-09-22T07:16:46.811Z,22.65
2022-09-22T07:19:16.568Z,11.90
2022-09-22T07:21:46.099Z,9.88
2022-09-22T07:24:15.878Z,10.70
2022-09-22T07:26:45.940Z,38.50
2022-09-22T07:29:18.740Z,16.65
2022-09-22T07:31:48.150Z,17.38
2022-09-22T07:34:25.095Z,22.88
2022-09-22T07:36:56.645Z,11.57
2022-09-22T07:39:26.244Z,11.70
2022-09-22T07:41:55.894Z,17.70
2022-09-22T07:44:44.704Z,10.75
2022-09-22T07:47:14.087Z,11.80
2022-09-22T07:49:44.042Z,10.40
2022-09-22T07:52:15.380Z,18.83
2022-09-22T07:54:44.882Z,16.80
2022-09-22T07:57:14.483Z,11.77
2022-09-22T07:59:43.839Z,42.17
2022-09-22T08:02:13.090Z,18.92
2022-09-22T08:04:42.784Z,17.67
2022-09-22T08:07:12.852Z,12.48
2022-09-22T08:09:43.251Z,38.42
2022-09-22T08:12:15.266Z,16.65
2022-09-22T08:14:47.304Z,25.77
2022-09-22T08:17:21.065Z,19.73
2022-09-22T08:20:09.903Z,20.27
2022-09-22T08:22:51.404Z,22.90
2022-09-22T08:25:51.904Z,23.35
2022-09-22T08:28:30.066Z,25.73
2022-09-22T08:31:01.388Z,18.33
2022-09-22T08:33:41.205Z,21.58
2022-09-22T08:36:12.207Z,31.45
2022-09-22T08:38:50.574Z,21.83
2022-09-22T08:41:48.553Z,23.45
2022-09-22T08:44:27.315Z,19.65
2022-09-22T08:47:03.916Z,26.63
2022-09-22T08:50:00.285Z,18.95
2022-09-22T08:52:53.859Z,20.65
2022-09-22T08:55:27.593Z,31.63
2022-09-22T08:58:07.797Z,15.98
2022-09-22T09:01:10.524Z,51.33
2022-09-22T09:03:58.722Z,18.58
2022-09-22T09:06:40.322Z,18.77
2022-09-22T09:09:35.935Z,26.33
2022-09-22T09:12:17.049Z,27.33
2022-09-22T09:15:11.036Z,19.17
2022-09-22T09:17:45.889Z,30.27
2022-09-22T09:20:21.030Z,42.53
2022-09-22T09:22:59.741Z,26.00
2022-09-22T09:25:42.385Z,23.20
2022-09-22T09:28:27.038Z,23.13
2022-09-22T09:31:07.116Z,33.88
2022-09-22T09:33:46.008Z,19.00
2022-09-22T09:36:21.671Z,22.30
2022-09-22T09:38:59.655Z,23.40
2022-09-22T09:41:35.223Z,27.15
2022-09-22T09:44:06.732Z,25.55
2022-09-22T09:47:03.109Z,27.27
2022-09-22T09:49:32.870Z,27.60
2022-09-22T09:52:03.135Z,28.67
2022-09-22T09:54:37.626Z,38.78
2022-09-22T09:57:14.343Z,78.55
2022-09-22T10:00:06.885Z,49.28
2022-09-22T10:03:01.585Z,30.00
2022-09-22T10:05:33.413Z,34.65
2022-09-22T10:08:16.500Z,30.20
2022-09-22T10:13:24.625Z,30.88
2022-09-22T10:16:07.640Z,67.05
2022-09-22T10:18:46.200Z,50.05
2022-09-22T10:21:17.385Z,41.47
2022-09-22T10:23:49.178Z,69.53
2022-09-22T10:26:33.720Z,25.20
2022-09-22T10:29:22.727Z,33.90
2022-09-22T10:32:03.602Z,29.38
2022-09-22T10:34:39.468Z,29.63
2022-09-22T10:37:12.903Z,27.02
2022-09-22T10:39:52.497Z,32.05
2022-09-22T10:42:34.431Z,43.72
2022-09-22T10:47:56.609Z,31.70
2022-09-22T10:51:08.394Z,27.33
2022-09-22T10:54:06.823Z,25.42
2022-09-22T10:56:50.777Z,33.05
2022-09-22T10:59:47.684Z,30.05
2022-09-22T11:03:08.351Z,30.63
2022-09-22T11:06:03.378Z,31.55
2022-09-22T11:09:13.718Z,33.80
2022-09-22T11:12:19.168Z,28.88
2022-09-22T11:14:57.659Z,32.42
2022-09-22T11:18:04.777Z,25.90
2022-09-22T11:20:49.672Z,24.30
2022-09-22T11:23:30.735Z,28.73
2022-09-22T11:26:15.939Z,19.42
2022-09-22T11:29:07.794Z,123.13
2022-09-22T11:32:02.697Z,24.27
2022-09-22T11:34:54.073Z,30.30
2022-09-22T11:37:42.061Z,26.90
2022-09-22T11:40:40.707Z,16.80
2022-09-22T11:43:41.240Z,14.45
2022-09-22T11:46:39.083Z,15.20
2022-09-22T11:49:47.241Z,25.13
2022-09-22T11:52:27.784Z,24.17
2022-09-22T11:55:09.885Z,26.23
2022-09-22T11:57:43.996Z,11.55
2022-09-22T12:00:20.256Z,21.42
2022-09-22T12:03:12.344Z,21.25
2022-09-22T12:05:43.288Z,30.35
2022-09-22T12:08:22.072Z,24.60
2022-09-22T12:10:53.181Z,13.73
2022-09-22T12:13:26.683Z,16.80
2022-09-22T12:16:10.911Z,24.33
2022-09-22T12:19:06.258Z,13.15
2022-09-22T12:21:59.349Z,20.23
2022-09-22T12:24:28.476Z,24.35
2022-09-22T12:26:57.719Z,24.67
2022-09-22T12:29:30.645Z,23.55
2022-09-22T12:32:01.176Z,27.10
2022-09-22T12:34:41.058Z,19.02
2022-09-22T12:37:15.804Z,18.08
2022-09-22T12:39:48.135Z,21.90
2022-09-22T12:42:23.094Z,34.60
2022-09-22T12:45:22.485Z,24.27
2022-09-22T12:47:55.290Z,16.63
2022-09-22T12:50:43.392Z,24.05
2022-09-22T12:53:24.670Z,17.80
2022-09-22T12:55:58.494Z,33.50
2022-09-22T12:58:30.382Z,41.13
2022-09-22T13:01:36.431Z,44.33
2022-09-22T13:04:20.006Z,65.30
2022-09-22T13:06:49.064Z,46.53
2022-09-22T13:09:27.002Z,44.47
2022-09-22T13:12:14.125Z,44.35
2022-09-22T13:15:13.437Z,56.65
2022-09-22T13:17:52.311Z,41.42
2022-09-22T13:20:33.760Z,47.80
2022-09-22T13:23:13.443Z,41.05
2022-09-22T13:25:45.729Z,46.45
2022-09-22T13:31:02.235Z,40.35
2022-09-22T13:33:36.255Z,39.00
2022-09-22T13:36:17.906Z,36.03
2022-09-22T13:38:55.153Z,38.08
2022-09-22T13:41:35.165Z,41.22
2022-09-22T13:44:11.512Z,40.55
2022-09-22T13:46:46.847Z,55.05
2022-09-22T13:49:32.148Z,40.45
2022-09-22T13:52:07.187Z,51.33
2022-09-22T13:54:38.723Z,42.08
2022-09-22T13:57:19.439Z,29.30
2022-09-22T13:59:48.629Z,34.95
2022-09-22T14:02:28.143Z,33.45
2022-09-22T14:05:19.632Z,31.23
2022-09-22T14:08:10.506Z,44.47
2022-09-22T14:10:39.322Z,28.00
2022-09-22T14:13:37.663Z,28.20
2022-09-22T14:16:22.298Z,36.13
2022-09-22T14:19:16.944Z,35.22
2022-09-22T14:21:57.291Z,34.65
2022-09-22T14:24:27.881Z,34.10
2022-09-22T14:27:04.544Z,32.42
2022-09-22T14:29:48.595Z,22.48
2022-09-22T14:32:45.757Z,23.45
2022-09-22T14:35:24.663Z,30.08
2022-09-22T14:37:56.154Z,17.27
2022-09-22T14:40:28.615Z,16.20
2022-09-22T14:43:00.153Z,27.15
2022-09-22T14:45:30.553Z,16.10
2022-09-22T14:48:19.603Z,19.35
2022-09-22T14:50:55.687Z,19.85
2022-09-22T14:53:48.159Z,22.98
2022-09-22T14:56:28.838Z,28.70
2022-09-22T14:59:27.506Z,29.25
2022-09-22T15:02:16.646Z,24.05
2022-09-22T15:04:51.849Z,27.50
2022-09-22T15:07:30.621Z,26.77
2022-09-22T15:10:03.644Z,22.80
2022-09-22T15:12:39.196Z,32.33
2022-09-22T15:15:27.986Z,22.35
2022-09-22T15:18:17.884Z,25.80
2022-09-22T15:21:04.560Z,19.17
2022-09-22T15:23:40.774Z,21.75
2022-09-22T15:26:25.479Z,16.02
2022-09-22T15:28:57.048Z,17.98
2022-09-22T15:31:30.980Z,17.90
2022-09-22T15:34:04.062Z,18.80
2022-09-22T15:36:38.146Z,25.75
2022-09-22T15:39:15.381Z,20.73
2022-09-22T15:41:45.726Z,34.67
2022-09-22T15:44:15.978Z,19.58
2022-09-22T15:46:47.280Z,15.25
2022-09-22T15:49:19.204Z,19.03
2022-09-22T15:51:50.642Z,16.83
2022-09-22T15:54:22.506Z,18.13
2022-09-22T15:56:54.781Z,15.52
2022-09-22T16:01:58.858Z,19.58
2022-09-22T16:04:32.567Z,23.23
2022-09-22T16:07:06.006Z,15.93
2022-09-22T16:09:35.415Z,15.43
2022-09-22T16:12:07.789Z,20.52
2022-09-22T16:14:37.704Z,19.75
2022-09-22T16:17:08.761Z,20.08
2022-09-22T16:19:37.931Z,27.35
2022-09-22T16:22:07.182Z,25.60
2022-09-22T16:24:36.622Z,22.30
2022-09-22T16:27:07.445Z,15.93
2022-09-22T16:29:38.674Z,19.27
2022-09-22T16:32:08.606Z,17.92
2022-09-22T16:34:38.322Z,16.20
2022-09-22T16:37:07.444Z,15.18
2022-09-22T16:39:36.410Z,19.30
2022-09-22T16:42:05.388Z,22.45
2022-09-22T16:44:34.756Z,22.75
2022-09-22T16:47:03.691Z,20.25
2022-09-22T16:49:34.882Z,22.40
2022-09-22T16:52:03.912Z,14.40
2022-09-22T16:54:34.072Z,19.75
2022-09-22T16:57:03.245Z,20.17
2022-09-22T16:59:32.646Z,21.55
2022-09-22T17:02:02.273Z,20.80
2022-09-22T17:04:33.448Z,17.40
2022-09-22T17:07:02.861Z,18.92
2022-09-22T17:09:33.185Z,21.70
2022-09-22T17:12:09.667Z,22.77
2022-09-22T17:14:38.873Z,23.27
2022-09-22T17:17:09.063Z,21.02
2022-09-22T17:19:38.497Z,22.20
2022-09-22T17:22:08.345Z,15.20
2022-09-22T17:24:37.715Z,19.58
2022-09-22T17:27:07.236Z,16.95
2022-09-22T17:29:36.838Z,98.72
2022-09-22T17:32:09.273Z,44.75
2022-09-22T17:34:39.512Z,40.40
2022-09-22T17:37:10.935Z,27.63
2022-09-22T17:39:40.628Z,29.33
2022-09-22T17:42:09.682Z,18.52
2022-09-22T17:44:38.925Z,20.42
2022-09-22T17:47:26.644Z,16.33
2022-09-22T17:50:14.405Z,13.18
2022-09-22T17:53:04.136Z,22.20
2022-09-22T17:55:34.190Z,15.48
2022-09-22T17:58:03.134Z,17.63
2022-09-22T18:00:34.860Z,22.42
2022-09-22T18:03:04.914Z,21.85
2022-09-22T18:05:34.109Z,23.40
2022-09-22T18:08:03.160Z,13.85
2022-09-22T18:10:35.187Z,17.00
2022-09-22T18:13:05.866Z,15.20
2022-09-22T18:15:37.533Z,24.40
2022-09-22T18:18:06.951Z,17.95
2022-09-22T18:20:36.263Z,17.00
2022-09-22T18:23:05.220Z,15.40
2022-09-22T18:25:35.344Z,20.50
2022-09-22T18:28:06.625Z,16.45
2022-09-22T18:30:36.332Z,26.67
2022-09-22T18:33:05.487Z,15.02
2022-09-22T18:35:35.044Z,23.60
2022-09-22T18:38:05.030Z,25.35
2022-09-22T18:40:34.123Z,18.95
2022-09-22T18:43:03.171Z,16.45
2022-09-22T18:45:33.139Z,23.40
2022-09-22T18:48:04.028Z,28.48
2022-09-22T18:50:36.770Z,24.08
2022-09-22T18:55:36.396Z,22.55
2022-09-22T18:58:05.417Z,16.13
2022-09-22T19:00:34.632Z,24.73
2022-09-22T19:03:03.818Z,19.48
2022-09-22T19:05:33.005Z,21.40
2022-09-22T19:08:03.026Z,27.55
2022-09-22T19:10:34.382Z,28.70
2022-09-22T19:13:06.419Z,32.63
2022-09-22T19:15:36.031Z,24.73
2022-09-22T19:18:05.833Z,26.88
2022-09-22T19:20:34.941Z,22.92
2022-09-22T19:23:04.676Z,22.73
2022-09-22T19:25:34.124Z,20.02
2022-09-22T19:28:03.328Z,22.75
2022-09-22T19:30:32.437Z,22.20
2022-09-22T19:33:02.033Z,27.02
2022-09-22T19:35:31.095Z,23.08
2022-09-22T19:38:00.895Z,22.55
2022-09-22T19:40:29.943Z,27.63
2022-09-22T19:43:00.561Z,17.40
2022-09-22T19:45:31.420Z,22.67
2022-09-22T19:48:00.715Z,16.58
2022-09-22T19:50:29.548Z,19.80
2022-09-22T19:52:58.758Z,24.20
2022-09-22T19:55:27.618Z,16.13
2022-09-22T19:57:56.654Z,18.50
2022-09-22T20:00:29.216Z,17.95
2022-09-22T20:03:00.001Z,21.30
2022-09-22T20:05:33.517Z,18.33
2022-09-22T20:08:03.316Z,23.52
2022-09-22T20:10:33.130Z,23.38
2022-09-22T20:13:02.285Z,23.05
2022-09-22T20:15:31.258Z,16.52
2022-09-22T20:18:00.358Z,19.00
2022-09-22T20:20:33.504Z,23.60
2022-09-22T20:23:02.946Z,20.85
2022-09-22T20:25:34.359Z,23.77
2022-09-22T20:28:03.716Z,16.52
2022-09-22T20:30:33.066Z,16.33
2022-09-22T20:33:02.865Z,17.23
2022-09-22T20:35:32.126Z,18.27
2022-09-22T20:38:01.658Z,19.70
2022-09-22T20:40:30.770Z,15.98
2022-09-22T20:42:59.755Z,15.35
2022-09-22T20:45:30.143Z,19.05
2022-09-22T20:47:59.450Z,14.52
2022-09-22T20:50:28.776Z,15.23
2022-09-22T20:52:57.922Z,15.77
2022-09-22T20:55:26.923Z,21.23
2022-09-22T20:57:56.036Z,21.48
2022-09-22T21:00:25.185Z,19.50
2022-09-22T21:02:54.775Z,14.70
2022-09-22T21:05:23.890Z,19.48
2022-09-22T21:08:12.716Z,15.27
2022-09-22T21:10:41.723Z,19.85
2022-09-22T21:13:10.932Z,15.38
2022-09-22T21:15:40.412Z,18.55
2022-09-22T21:18:09.944Z,11.43
2022-09-22T21:20:42.480Z,15.40
2022-09-22T21:23:11.464Z,16.00
2022-09-22T21:25:40.449Z,15.57
2022-09-22T21:28:09.552Z,16.25
2022-09-22T21:30:38.590Z,16.58
2022-09-22T21:33:12.491Z,13.15
2022-09-22T21:35:42.082Z,17.00
2022-09-22T21:38:11.190Z,17.10
2022-09-22T21:40:40.314Z,20.17
2022-09-22T21:43:09.408Z,18.02
2022-09-22T21:45:38.456Z,13.05
2022-09-22T21:48:07.777Z,13.15
2022-09-22T21:50:36.807Z,12.10
2022-09-22T21:53:06.334Z,9.98
2022-09-22T21:55:35.493Z,7.97
2022-09-22T21:58:04.888Z,10.80
2022-09-22T22:00:51.205Z,9.05
2022-09-22T22:03:33.435Z,10.48
2022-09-22T22:06:17.256Z,12.07
2022-09-22T22:09:09.106Z,10.50
2022-09-22T22:11:40.848Z,13.45
2022-09-22T22:14:12.770Z,12.40
2022-09-22T22:16:47.762Z,10.80
2022-09-22T22:19:21.137Z,10.52
2022-09-22T22:21:52.162Z,10.82
2022-09-22T22:24:37.543Z,12.90
2022-09-22T22:27:11.011Z,16.98
2022-09-22T22:29:40.503Z,13.15
2022-09-22T22:32:11.653Z,11.10
2022-09-22T22:34:40.778Z,11.67
2022-09-22T22:37:13.709Z,9.45
2022-09-22T22:39:43.156Z,13.73
2022-09-22T22:42:11.937Z,13.23
2022-09-22T22:44:41.055Z,17.88
2022-09-22T22:47:10.163Z,17.02
2022-09-22T22:49:39.047Z,12.90
2022-09-22T22:52:08.815Z,17.88
2022-09-22T22:54:37.619Z,10.23
2022-09-22T22:57:06.821Z,16.20
2022-09-22T22:59:35.954Z,10.82
2022-09-22T23:02:05.074Z,16.95
2022-09-22T23:04:34.079Z,22.88
2022-09-22T23:07:03.167Z,20.58
2022-09-22T23:09:32.088Z,12.50
2022-09-22T23:12:01.103Z,14.85
2022-09-22T23:14:30.712Z,19.05
2022-09-22T23:16:59.742Z,18.65
2022-09-22T23:19:29.126Z,21.40
2022-09-22T23:22:00.384Z,14.77
2022-09-22T23:24:29.643Z,12.23
2022-09-22T23:26:59.785Z,18.70
2022-09-22T23:29:29.121Z,14.55
2022-09-22T23:31:58.057Z,13.23
2022-09-22T23:34:27.218Z,13.63
2022-09-22T23:36:56.198Z,18.98
2022-09-22T23:39:25.324Z,20.90
2022-09-22T23:41:54.586Z,32.22
2022-09-22T23:44:23.524Z,44.78
2022-09-22T23:46:52.769Z,42.00
2022-09-22T23:49:21.685Z,35.22
2022-09-22T23:51:51.058Z,62.03
2022-09-22T23:54:20.049Z,88.45
2022-09-22T23:56:49.081Z,117.93
2022-09-22T23:59:18.063Z,83.90
